sensor_id;sensor_type;location;lat;lon;timestamp;temperature;humidity
78490;DHT22;67776;52.012;4.736;2023-07-30T00:02:16;16.66;84.11
78490;DHT22;67776;52.012;4.736;2023-07-30T00:04:42;16.72;83.69
78490;DHT22;67776;52.012;4.736;2023-07-30T00:07:07;16.70;83.55
78490;DHT22;67776;52.012;4.736;2023-07-30T00:09:32;16.63;84.32
78490;DHT22;67776;52.012;4.736;2023-07-30T00:11:58;16.62;84.83
78490;DHT22;67776;52.012;4.736;2023-07-30T00:14:23;16.60;84.54
78490;DHT22;67776;52.012;4.736;2023-07-30T00:16:49;16.62;84.14
78490;DHT22;67776;52.012;4.736;2023-07-30T00:19:14;16.63;84.37
78490;DHT22;67776;52.012;4.736;2023-07-30T00:21:39;16.65;84.34
78490;DHT22;67776;52.012;4.736;2023-07-30T00:24:05;16.69;85.09
78490;DHT22;67776;52.012;4.736;2023-07-30T00:26:30;16.66;84.62
78490;DHT22;67776;52.012;4.736;2023-07-30T00:28:55;16.60;84.97
78490;DHT22;67776;52.012;4.736;2023-07-30T00:31:21;16.62;85.31
78490;DHT22;67776;52.012;4.736;2023-07-30T00:33:46;16.47;85.64
78490;DHT22;67776;52.012;4.736;2023-07-30T00:36:11;16.55;85.16
78490;DHT22;67776;52.012;4.736;2023-07-30T00:38:37;16.41;86.58
78490;DHT22;67776;52.012;4.736;2023-07-30T00:41:02;16.36;86.39
78490;DHT22;67776;52.012;4.736;2023-07-30T00:43:27;16.44;85.72
78490;DHT22;67776;52.012;4.736;2023-07-30T00:45:53;16.38;86.10
78490;DHT22;67776;52.012;4.736;2023-07-30T00:48:18;16.42;87.50
78490;DHT22;67776;52.012;4.736;2023-07-30T00:50:44;16.48;87.06
78490;DHT22;67776;52.012;4.736;2023-07-30T00:53:11;16.48;86.86
78490;DHT22;67776;52.012;4.736;2023-07-30T00:55:39;16.45;87.07
78490;DHT22;67776;52.012;4.736;2023-07-30T00:58:04;16.63;85.72
78490;DHT22;67776;52.012;4.736;2023-07-30T01:00:30;16.59;85.85
78490;DHT22;67776;52.012;4.736;2023-07-30T01:02:57;16.65;86.25
78490;DHT22;67776;52.012;4.736;2023-07-30T01:05:22;16.60;86.33
78490;DHT22;67776;52.012;4.736;2023-07-30T01:07:48;16.60;86.40
78490;DHT22;67776;52.012;4.736;2023-07-30T01:10:14;16.66;86.26
78490;DHT22;67776;52.012;4.736;2023-07-30T01:12:41;16.59;87.00
78490;DHT22;67776;52.012;4.736;2023-07-30T01:15:08;16.49;88.03
78490;DHT22;67776;52.012;4.736;2023-07-30T01:17:34;16.58;86.41
78490;DHT22;67776;52.012;4.736;2023-07-30T01:20:00;16.52;87.10
78490;DHT22;67776;52.012;4.736;2023-07-30T01:22:25;16.49;87.02
78490;DHT22;67776;52.012;4.736;2023-07-30T01:24:51;16.45;86.96
78490;DHT22;67776;52.012;4.736;2023-07-30T01:27:37;16.36;88.29
78490;DHT22;67776;52.012;4.736;2023-07-30T01:30:17;16.45;87.43
78490;DHT22;67776;52.012;4.736;2023-07-30T01:32:44;16.45;87.68
78490;DHT22;67776;52.012;4.736;2023-07-30T01:35:14;16.49;87.28
78490;DHT22;67776;52.012;4.736;2023-07-30T01:37:41;16.42;87.50
78490;DHT22;67776;52.012;4.736;2023-07-30T01:40:08;16.42;87.98
78490;DHT22;67776;52.012;4.736;2023-07-30T01:42:34;16.38;88.09
78490;DHT22;67776;52.012;4.736;2023-07-30T01:44:59;16.40;88.11
78490;DHT22;67776;52.012;4.736;2023-07-30T01:47:25;16.26;88.79
78490;DHT22;67776;52.012;4.736;2023-07-30T01:49:50;16.31;88.27
78490;DHT22;67776;52.012;4.736;2023-07-30T01:52:15;16.21;89.42
78490;DHT22;67776;52.012;4.736;2023-07-30T01:54:41;16.36;87.98
78490;DHT22;67776;52.012;4.736;2023-07-30T01:57:07;16.32;88.13
78490;DHT22;67776;52.012;4.736;2023-07-30T01:59:33;16.14;89.38
78490;DHT22;67776;52.012;4.736;2023-07-30T02:01:58;16.18;89.04
78490;DHT22;67776;52.012;4.736;2023-07-30T02:04:23;16.18;89.06
78490;DHT22;67776;52.012;4.736;2023-07-30T02:06:49;16.25;88.76
78490;DHT22;67776;52.012;4.736;2023-07-30T02:09:14;16.14;89.41
78490;DHT22;67776;52.012;4.736;2023-07-30T02:11:39;16.14;89.52
78490;DHT22;67776;52.012;4.736;2023-07-30T02:14:05;16.18;89.66
78490;DHT22;67776;52.012;4.736;2023-07-30T02:16:30;16.07;90.39
78490;DHT22;67776;52.012;4.736;2023-07-30T02:18:55;16.14;89.68
78490;DHT22;67776;52.012;4.736;2023-07-30T02:21:21;16.08;89.87
78490;DHT22;67776;52.012;4.736;2023-07-30T02:23:46;16.04;90.62
78490;DHT22;67776;52.012;4.736;2023-07-30T02:26:11;15.98;90.96
78490;DHT22;67776;52.012;4.736;2023-07-30T02:28:37;16.01;90.62
78490;DHT22;67776;52.012;4.736;2023-07-30T02:31:02;16.00;90.33
78490;DHT22;67776;52.012;4.736;2023-07-30T02:33:27;15.97;90.15
78490;DHT22;67776;52.012;4.736;2023-07-30T02:35:52;16.00;90.29
78490;DHT22;67776;52.012;4.736;2023-07-30T02:38:18;16.03;90.42
78490;DHT22;67776;52.012;4.736;2023-07-30T02:40:43;16.00;90.70
78490;DHT22;67776;52.012;4.736;2023-07-30T02:43:08;15.98;90.77
78490;DHT22;67776;52.012;4.736;2023-07-30T02:45:34;15.96;90.98
78490;DHT22;67776;52.012;4.736;2023-07-30T02:47:59;15.86;91.93
78490;DHT22;67776;52.012;4.736;2023-07-30T02:50:24;15.94;91.27
78490;DHT22;67776;52.012;4.736;2023-07-30T02:52:50;15.85;91.89
78490;DHT22;67776;52.012;4.736;2023-07-30T02:55:15;15.89;91.68
78490;DHT22;67776;52.012;4.736;2023-07-30T02:57:41;15.85;91.90
78490;DHT22;67776;52.012;4.736;2023-07-30T03:00:07;15.80;92.18
78490;DHT22;67776;52.012;4.736;2023-07-30T03:02:33;15.85;92.04
78490;DHT22;67776;52.012;4.736;2023-07-30T03:04:59;15.77;92.16
78490;DHT22;67776;52.012;4.736;2023-07-30T03:07:24;15.82;91.93
78490;DHT22;67776;52.012;4.736;2023-07-30T03:09:50;15.73;92.51
78490;DHT22;67776;52.012;4.736;2023-07-30T03:12:15;15.79;92.10
78490;DHT22;67776;52.012;4.736;2023-07-30T03:14:40;15.63;92.93
78490;DHT22;67776;52.012;4.736;2023-07-30T03:17:06;15.65;92.88
78490;DHT22;67776;52.012;4.736;2023-07-30T03:19:31;15.69;92.90
78490;DHT22;67776;52.012;4.736;2023-07-30T03:21:57;15.74;92.42
78490;DHT22;67776;52.012;4.736;2023-07-30T03:24:22;15.66;92.99
78490;DHT22;67776;52.012;4.736;2023-07-30T03:26:47;15.73;92.73
78490;DHT22;67776;52.012;4.736;2023-07-30T03:29:15;15.77;92.48
78490;DHT22;67776;52.012;4.736;2023-07-30T03:31:41;15.69;92.93
78490;DHT22;67776;52.012;4.736;2023-07-30T03:34:06;15.74;93.00
78490;DHT22;67776;52.012;4.736;2023-07-30T03:36:31;15.76;92.90
78490;DHT22;67776;52.012;4.736;2023-07-30T03:38:57;15.76;93.16
78490;DHT22;67776;52.012;4.736;2023-07-30T03:41:22;15.85;92.89
78490;DHT22;67776;52.012;4.736;2023-07-30T03:43:48;15.86;93.24
78490;DHT22;67776;52.012;4.736;2023-07-30T03:46:13;15.89;93.00
78490;DHT22;67776;52.012;4.736;2023-07-30T03:48:38;15.96;92.75
78490;DHT22;67776;52.012;4.736;2023-07-30T03:51:04;15.91;93.32
78490;DHT22;67776;52.012;4.736;2023-07-30T03:53:29;15.94;93.13
78490;DHT22;67776;52.012;4.736;2023-07-30T03:55:54;15.89;93.04
78490;DHT22;67776;52.012;4.736;2023-07-30T03:58:20;15.97;92.91
78490;DHT22;67776;52.012;4.736;2023-07-30T04:00:45;15.98;92.86
78490;DHT22;67776;52.012;4.736;2023-07-30T04:03:10;15.94;93.46
78490;DHT22;67776;52.012;4.736;2023-07-30T04:05:36;15.87;93.52
78490;DHT22;67776;52.012;4.736;2023-07-30T04:08:01;15.90;93.74
78490;DHT22;67776;52.012;4.736;2023-07-30T04:10:26;15.89;93.53
78490;DHT22;67776;52.012;4.736;2023-07-30T04:12:52;15.94;93.43
78490;DHT22;67776;52.012;4.736;2023-07-30T04:15:17;15.98;93.37
78490;DHT22;67776;52.012;4.736;2023-07-30T04:17:43;16.01;93.12
78490;DHT22;67776;52.012;4.736;2023-07-30T04:20:09;15.93;93.56
78490;DHT22;67776;52.012;4.736;2023-07-30T04:22:35;15.93;93.91
78490;DHT22;67776;52.012;4.736;2023-07-30T04:25:01;15.98;93.57
78490;DHT22;67776;52.012;4.736;2023-07-30T04:27:26;16.06;93.37
78490;DHT22;67776;52.012;4.736;2023-07-30T04:29:51;16.08;93.04
78490;DHT22;67776;52.012;4.736;2023-07-30T04:32:17;16.10;93.08
78490;DHT22;67776;52.012;4.736;2023-07-30T04:34:42;16.14;92.91
78490;DHT22;67776;52.012;4.736;2023-07-30T04:37:07;16.07;93.34
78490;DHT22;67776;52.012;4.736;2023-07-30T04:39:33;16.07;93.62
78490;DHT22;67776;52.012;4.736;2023-07-30T04:41:58;16.08;93.47
78490;DHT22;67776;52.012;4.736;2023-07-30T04:44:24;16.08;93.64
78490;DHT22;67776;52.012;4.736;2023-07-30T04:46:49;16.11;93.70
78490;DHT22;67776;52.012;4.736;2023-07-30T04:49:14;16.21;93.28
78490;DHT22;67776;52.012;4.736;2023-07-30T04:51:40;16.26;93.21
78490;DHT22;67776;52.012;4.736;2023-07-30T04:54:05;16.24;93.12
78490;DHT22;67776;52.012;4.736;2023-07-30T04:56:30;16.26;93.34
78490;DHT22;67776;52.012;4.736;2023-07-30T04:58:56;16.32;92.94
78490;DHT22;67776;52.012;4.736;2023-07-30T05:01:21;16.35;92.91
78490;DHT22;67776;52.012;4.736;2023-07-30T05:03:46;16.31;93.33
78490;DHT22;67776;52.012;4.736;2023-07-30T05:06:12;16.34;93.28
78490;DHT22;67776;52.012;4.736;2023-07-30T05:08:37;16.38;92.82
78490;DHT22;67776;52.012;4.736;2023-07-30T05:11:02;16.28;93.15
78490;DHT22;67776;52.012;4.736;2023-07-30T05:13:28;16.31;93.06
78490;DHT22;67776;52.012;4.736;2023-07-30T05:15:53;16.32;92.69
78490;DHT22;67776;52.012;4.736;2023-07-30T05:18:18;16.44;92.26
78490;DHT22;67776;52.012;4.736;2023-07-30T05:20:46;16.49;92.25
78490;DHT22;67776;52.012;4.736;2023-07-30T05:23:11;16.38;93.11
78490;DHT22;67776;52.012;4.736;2023-07-30T05:25:36;16.38;92.89
78490;DHT22;67776;52.012;4.736;2023-07-30T05:28:02;16.48;92.24
78490;DHT22;67776;52.012;4.736;2023-07-30T05:30:27;16.47;92.27
78490;DHT22;67776;52.012;4.736;2023-07-30T05:32:52;16.53;92.07
78490;DHT22;67776;52.012;4.736;2023-07-30T05:35:18;16.44;92.33
78490;DHT22;67776;52.012;4.736;2023-07-30T05:37:44;16.52;92.36
78490;DHT22;67776;52.012;4.736;2023-07-30T05:40:09;16.55;91.81
78490;DHT22;67776;52.012;4.736;2023-07-30T05:42:34;16.48;92.32
78490;DHT22;67776;52.012;4.736;2023-07-30T05:45:00;16.55;91.87
78490;DHT22;67776;52.012;4.736;2023-07-30T05:47:25;16.47;92.22
78490;DHT22;67776;52.012;4.736;2023-07-30T05:49:51;16.49;92.11
78490;DHT22;67776;52.012;4.736;2023-07-30T05:52:16;16.56;92.44
78490;DHT22;67776;52.012;4.736;2023-07-30T05:54:41;16.62;91.31
78490;DHT22;67776;52.012;4.736;2023-07-30T05:57:07;16.66;91.78
78490;DHT22;67776;52.012;4.736;2023-07-30T05:59:32;16.60;91.46
78490;DHT22;67776;52.012;4.736;2023-07-30T06:02:02;16.72;91.30
78490;DHT22;67776;52.012;4.736;2023-07-30T06:04:28;16.77;92.06
78490;DHT22;67776;52.012;4.736;2023-07-30T06:06:53;16.89;90.80
78490;DHT22;67776;52.012;4.736;2023-07-30T06:09:18;16.90;90.44
78490;DHT22;67776;52.012;4.736;2023-07-30T06:11:44;17.00;90.17
78490;DHT22;67776;52.012;4.736;2023-07-30T06:14:09;17.00;89.80
78490;DHT22;67776;52.012;4.736;2023-07-30T06:16:34;16.94;90.12
78490;DHT22;67776;52.012;4.736;2023-07-30T06:19:00;17.10;89.63
78490;DHT22;67776;52.012;4.736;2023-07-30T06:21:25;17.02;90.40
78490;DHT22;67776;52.012;4.736;2023-07-30T06:23:50;17.18;89.94
78490;DHT22;67776;52.012;4.736;2023-07-30T06:26:16;17.10;88.99
78490;DHT22;67776;52.012;4.736;2023-07-30T06:28:41;17.11;89.14
78490;DHT22;67776;52.012;4.736;2023-07-30T06:31:06;17.06;89.00
78490;DHT22;67776;52.012;4.736;2023-07-30T06:33:32;16.96;89.36
78490;DHT22;67776;52.012;4.736;2023-07-30T06:35:57;17.04;88.93
78490;DHT22;67776;52.012;4.736;2023-07-30T06:38:22;16.94;89.98
78490;DHT22;67776;52.012;4.736;2023-07-30T06:40:48;17.03;89.51
78490;DHT22;67776;52.012;4.736;2023-07-30T06:43:13;17.13;89.06
78490;DHT22;67776;52.012;4.736;2023-07-30T06:45:39;17.11;88.07
78490;DHT22;67776;52.012;4.736;2023-07-30T06:48:04;17.21;89.12
78490;DHT22;67776;52.012;4.736;2023-07-30T06:50:29;17.30;87.87
78490;DHT22;67776;52.012;4.736;2023-07-30T06:52:55;17.42;87.88
78490;DHT22;67776;52.012;4.736;2023-07-30T06:55:20;17.56;87.73
78490;DHT22;67776;52.012;4.736;2023-07-30T06:57:45;17.58;87.30
78490;DHT22;67776;52.012;4.736;2023-07-30T07:00:11;17.52;86.85
78490;DHT22;67776;52.012;4.736;2023-07-30T07:02:37;17.58;87.00
78490;DHT22;67776;52.012;4.736;2023-07-30T07:05:02;17.63;86.99
78490;DHT22;67776;52.012;4.736;2023-07-30T07:07:27;17.58;86.04
78490;DHT22;67776;52.012;4.736;2023-07-30T07:09:53;17.52;86.54
78490;DHT22;67776;52.012;4.736;2023-07-30T07:12:18;17.56;86.92
78490;DHT22;67776;52.012;4.736;2023-07-30T07:14:43;17.59;86.43
78490;DHT22;67776;52.012;4.736;2023-07-30T07:17:09;17.69;85.75
78490;DHT22;67776;52.012;4.736;2023-07-30T07:19:34;17.70;86.52
78490;DHT22;67776;52.012;4.736;2023-07-30T07:22:05;17.45;86.93
78490;DHT22;67776;52.012;4.736;2023-07-30T07:24:31;17.46;87.14
78490;DHT22;67776;52.012;4.736;2023-07-30T07:26:57;17.49;86.66
78490;DHT22;67776;52.012;4.736;2023-07-30T07:29:22;17.48;87.62
78490;DHT22;67776;52.012;4.736;2023-07-30T07:31:47;17.52;86.98
78490;DHT22;67776;52.012;4.736;2023-07-30T07:34:13;17.51;86.99
78490;DHT22;67776;52.012;4.736;2023-07-30T07:36:38;17.62;86.87
78490;DHT22;67776;52.012;4.736;2023-07-30T07:39:04;17.45;87.75
78490;DHT22;67776;52.012;4.736;2023-07-30T07:41:29;17.39;88.20
78490;DHT22;67776;52.012;4.736;2023-07-30T07:43:54;17.52;86.94
78490;DHT22;67776;52.012;4.736;2023-07-30T07:46:20;17.35;89.06
78490;DHT22;67776;52.012;4.736;2023-07-30T07:48:45;17.45;87.00
78490;DHT22;67776;52.012;4.736;2023-07-30T07:51:11;17.61;85.88
78490;DHT22;67776;52.012;4.736;2023-07-30T07:53:37;17.68;87.33
78490;DHT22;67776;52.012;4.736;2023-07-30T07:56:03;17.85;86.86
78490;DHT22;67776;52.012;4.736;2023-07-30T07:58:28;17.94;85.16
78490;DHT22;67776;52.012;4.736;2023-07-30T08:00:55;17.91;85.38
78490;DHT22;67776;52.012;4.736;2023-07-30T08:03:21;18.06;84.58
78490;DHT22;67776;52.012;4.736;2023-07-30T08:05:47;18.31;83.24
78490;DHT22;67776;52.012;4.736;2023-07-30T08:08:12;18.59;82.94
78490;DHT22;67776;52.012;4.736;2023-07-30T08:10:39;18.65;84.14
78490;DHT22;67776;52.012;4.736;2023-07-30T08:13:04;18.56;84.24
78490;DHT22;67776;52.012;4.736;2023-07-30T08:15:30;18.62;82.23
78490;DHT22;67776;52.012;4.736;2023-07-30T08:17:55;18.75;81.72
78490;DHT22;67776;52.012;4.736;2023-07-30T08:20:20;18.79;80.63
78490;DHT22;67776;52.012;4.736;2023-07-30T08:22:46;18.68;81.34
78490;DHT22;67776;52.012;4.736;2023-07-30T08:25:11;18.63;82.89
78490;DHT22;67776;52.012;4.736;2023-07-30T08:27:37;18.79;81.85
78490;DHT22;67776;52.012;4.736;2023-07-30T08:30:02;18.66;82.10
78490;DHT22;67776;52.012;4.736;2023-07-30T08:32:27;18.53;80.01
78490;DHT22;67776;52.012;4.736;2023-07-30T08:34:56;18.34;79.55
78490;DHT22;67776;52.012;4.736;2023-07-30T08:37:21;18.20;80.32
78490;DHT22;67776;52.012;4.736;2023-07-30T08:39:47;18.37;77.77
78490;DHT22;67776;52.012;4.736;2023-07-30T08:42:12;18.37;78.20
78490;DHT22;67776;52.012;4.736;2023-07-30T08:44:38;18.35;76.46
78490;DHT22;67776;52.012;4.736;2023-07-30T08:47:03;18.45;76.40
78490;DHT22;67776;52.012;4.736;2023-07-30T08:49:30;18.42;75.53
78490;DHT22;67776;52.012;4.736;2023-07-30T08:51:58;18.44;75.19
78490;DHT22;67776;52.012;4.736;2023-07-30T08:54:26;18.58;77.31
78490;DHT22;67776;52.012;4.736;2023-07-30T08:56:52;19.28;75.62
78490;DHT22;67776;52.012;4.736;2023-07-30T08:59:19;18.92;73.98
78490;DHT22;67776;52.012;4.736;2023-07-30T09:01:47;18.65;75.41
78490;DHT22;67776;52.012;4.736;2023-07-30T09:04:17;18.51;74.83
78490;DHT22;67776;52.012;4.736;2023-07-30T09:06:42;18.33;76.24
78490;DHT22;67776;52.012;4.736;2023-07-30T09:09:10;18.44;76.84
78490;DHT22;67776;52.012;4.736;2023-07-30T09:11:36;18.31;77.74
78490;DHT22;67776;52.012;4.736;2023-07-30T09:14:02;18.77;76.53
78490;DHT22;67776;52.012;4.736;2023-07-30T09:16:28;19.13;75.16
78490;DHT22;67776;52.012;4.736;2023-07-30T09:18:53;19.76;73.17
78490;DHT22;67776;52.012;4.736;2023-07-30T09:21:20;20.54;72.60
78490;DHT22;67776;52.012;4.736;2023-07-30T09:23:54;20.71;70.38
78490;DHT22;67776;52.012;4.736;2023-07-30T09:26:19;20.73;70.56
78490;DHT22;67776;52.012;4.736;2023-07-30T09:28:44;20.92;69.20
78490;DHT22;67776;52.012;4.736;2023-07-30T09:31:10;21.82;66.47
78490;DHT22;67776;52.012;4.736;2023-07-30T09:33:40;21.31;67.81
78490;DHT22;67776;52.012;4.736;2023-07-30T09:36:08;21.41;66.94
78490;DHT22;67776;52.012;4.736;2023-07-30T09:38:41;20.33;68.71
78490;DHT22;67776;52.012;4.736;2023-07-30T09:41:08;20.80;65.94
78490;DHT22;67776;52.012;4.736;2023-07-30T09:43:35;20.68;65.40
78490;DHT22;67776;52.012;4.736;2023-07-30T09:46:05;20.67;68.54
78490;DHT22;67776;52.012;4.736;2023-07-30T09:48:32;20.54;65.63
78490;DHT22;67776;52.012;4.736;2023-07-30T09:50:59;21.51;62.96
78490;DHT22;67776;52.012;4.736;2023-07-30T09:53:32;21.52;61.65
78490;DHT22;67776;52.012;4.736;2023-07-30T09:56:05;20.93;63.71
78490;DHT22;67776;52.012;4.736;2023-07-30T09:58:32;20.75;63.50
78490;DHT22;67776;52.012;4.736;2023-07-30T10:01:01;20.00;67.71
78490;DHT22;67776;52.012;4.736;2023-07-30T10:03:28;20.47;67.94
78490;DHT22;67776;52.012;4.736;2023-07-30T10:05:58;20.80;63.56
78490;DHT22;67776;52.012;4.736;2023-07-30T10:08:26;20.55;65.83
78490;DHT22;67776;52.012;4.736;2023-07-30T10:10:54;21.04;63.89
78490;DHT22;67776;52.012;4.736;2023-07-30T10:13:20;21.79;61.37
78490;DHT22;67776;52.012;4.736;2023-07-30T10:15:46;22.07;63.33
78490;DHT22;67776;52.012;4.736;2023-07-30T10:18:12;21.10;67.13
78490;DHT22;67776;52.012;4.736;2023-07-30T10:20:37;21.06;65.68
78490;DHT22;67776;52.012;4.736;2023-07-30T10:23:04;21.41;64.52
78490;DHT22;67776;52.012;4.736;2023-07-30T10:25:48;20.88;66.75
78490;DHT22;67776;52.012;4.736;2023-07-30T10:31:00;21.27;65.36
78490;DHT22;67776;52.012;4.736;2023-07-30T10:33:51;22.21;60.13
78490;DHT22;67776;52.012;4.736;2023-07-30T10:39:19;21.52;63.01
78490;DHT22;67776;52.012;4.736;2023-07-30T10:41:48;20.99;63.36
78490;DHT22;67776;52.012;4.736;2023-07-30T10:44:34;20.55;64.43
78490;DHT22;67776;52.012;4.736;2023-07-30T10:47:01;20.49;65.77
78490;DHT22;67776;52.012;4.736;2023-07-30T10:49:27;20.69;64.70
78490;DHT22;67776;52.012;4.736;2023-07-30T10:51:54;20.52;65.96
78490;DHT22;67776;52.012;4.736;2023-07-30T10:54:20;20.49;66.59
78490;DHT22;67776;52.012;4.736;2023-07-30T10:56:45;20.93;65.82
78490;DHT22;67776;52.012;4.736;2023-07-30T10:59:12;21.62;63.45
78490;DHT22;67776;52.012;4.736;2023-07-30T11:01:43;22.07;63.41
78490;DHT22;67776;52.012;4.736;2023-07-30T11:04:14;21.71;63.54
78490;DHT22;67776;52.012;4.736;2023-07-30T11:06:45;22.29;62.80
78490;DHT22;67776;52.012;4.736;2023-07-30T11:09:20;22.71;62.40
78490;DHT22;67776;52.012;4.736;2023-07-30T11:11:47;22.48;63.44
78490;DHT22;67776;52.012;4.736;2023-07-30T11:14:23;22.84;59.64
78490;DHT22;67776;52.012;4.736;2023-07-30T11:19:17;22.21;61.52
78490;DHT22;67776;52.012;4.736;2023-07-30T11:21:50;21.54;61.28
78490;DHT22;67776;52.012;4.736;2023-07-30T11:24:16;20.83;63.93
78490;DHT22;67776;52.012;4.736;2023-07-30T11:26:42;21.11;63.36
78490;DHT22;67776;52.012;4.736;2023-07-30T11:29:18;21.11;62.78
78490;DHT22;67776;52.012;4.736;2023-07-30T11:31:44;21.22;62.45
78490;DHT22;67776;52.012;4.736;2023-07-30T11:34:10;21.23;62.47
78490;DHT22;67776;52.012;4.736;2023-07-30T11:36:36;21.44;62.76
78490;DHT22;67776;52.012;4.736;2023-07-30T11:39:02;22.44;62.97
78490;DHT22;67776;52.012;4.736;2023-07-30T11:41:27;23.07;60.29
78490;DHT22;67776;52.012;4.736;2023-07-30T11:43:54;22.60;59.15
78490;DHT22;67776;52.012;4.736;2023-07-30T11:46:19;22.24;60.94
78490;DHT22;67776;52.012;4.736;2023-07-30T11:48:49;21.59;62.09
78490;DHT22;67776;52.012;4.736;2023-07-30T11:51:28;20.95;65.81
78490;DHT22;67776;52.012;4.736;2023-07-30T11:54:00;21.79;63.53
78490;DHT22;67776;52.012;4.736;2023-07-30T11:56:28;22.69;61.16
78490;DHT22;67776;52.012;4.736;2023-07-30T11:58:56;22.23;62.71
78490;DHT22;67776;52.012;4.736;2023-07-30T12:01:24;21.81;64.73
78490;DHT22;67776;52.012;4.736;2023-07-30T12:03:53;21.26;65.11
78490;DHT22;67776;52.012;4.736;2023-07-30T12:06:18;21.34;64.64
78490;DHT22;67776;52.012;4.736;2023-07-30T12:08:44;21.69;63.00
78490;DHT22;67776;52.012;4.736;2023-07-30T12:11:09;22.85;61.35
78490;DHT22;67776;52.012;4.736;2023-07-30T12:13:43;24.12;59.45
78490;DHT22;67776;52.012;4.736;2023-07-30T12:16:11;24.10;57.72
78490;DHT22;67776;52.012;4.736;2023-07-30T12:18:37;23.88;58.07
78490;DHT22;67776;52.012;4.736;2023-07-30T12:21:02;24.26;55.64
78490;DHT22;67776;52.012;4.736;2023-07-30T12:23:30;24.09;53.84
78490;DHT22;67776;52.012;4.736;2023-07-30T12:25:55;23.98;56.38
78490;DHT22;67776;52.012;4.736;2023-07-30T12:28:20;23.77;55.70
78490;DHT22;67776;52.012;4.736;2023-07-30T12:30:46;23.23;54.96
78490;DHT22;67776;52.012;4.736;2023-07-30T12:33:11;22.85;56.67
78490;DHT22;67776;52.012;4.736;2023-07-30T12:35:36;22.30;58.98
78490;DHT22;67776;52.012;4.736;2023-07-30T12:38:02;23.82;52.51
78490;DHT22;67776;52.012;4.736;2023-07-30T12:40:27;22.68;56.53
78490;DHT22;67776;52.012;4.736;2023-07-30T12:43:00;22.51;55.90
78490;DHT22;67776;52.012;4.736;2023-07-30T12:45:25;22.58;56.30
78490;DHT22;67776;52.012;4.736;2023-07-30T12:47:50;22.81;55.69
78490;DHT22;67776;52.012;4.736;2023-07-30T12:50:16;22.24;55.85
78490;DHT22;67776;52.012;4.736;2023-07-30T12:52:41;22.09;56.58
78490;DHT22;67776;52.012;4.736;2023-07-30T12:55:07;21.85;56.73
78490;DHT22;67776;52.012;4.736;2023-07-30T12:57:32;21.74;57.17
78490;DHT22;67776;52.012;4.736;2023-07-30T12:59:57;21.51;58.49
78490;DHT22;67776;52.012;4.736;2023-07-30T13:02:23;21.48;56.49
78490;DHT22;67776;52.012;4.736;2023-07-30T13:04:48;21.22;58.61
78490;DHT22;67776;52.012;4.736;2023-07-30T13:07:14;22.65;56.56
78490;DHT22;67776;52.012;4.736;2023-07-30T13:09:39;23.55;55.21
78490;DHT22;67776;52.012;4.736;2023-07-30T13:12:05;23.36;58.71
78490;DHT22;67776;52.012;4.736;2023-07-30T13:14:30;22.91;56.97
78490;DHT22;67776;52.012;4.736;2023-07-30T13:16:56;22.96;56.99
78490;DHT22;67776;52.012;4.736;2023-07-30T13:19:21;22.33;58.31
78490;DHT22;67776;52.012;4.736;2023-07-30T13:21:46;22.57;58.39
78490;DHT22;67776;52.012;4.736;2023-07-30T13:24:12;24.36;56.50
78490;DHT22;67776;52.012;4.736;2023-07-30T13:26:37;24.13;56.32
78490;DHT22;67776;52.012;4.736;2023-07-30T13:29:03;22.67;56.67
78490;DHT22;67776;52.012;4.736;2023-07-30T13:31:29;22.32;56.22
78490;DHT22;67776;52.012;4.736;2023-07-30T13:33:55;22.68;57.07
78490;DHT22;67776;52.012;4.736;2023-07-30T13:36:20;21.99;58.44
78490;DHT22;67776;52.012;4.736;2023-07-30T13:38:46;21.45;61.06
78490;DHT22;67776;52.012;4.736;2023-07-30T13:41:11;21.23;63.95
78490;DHT22;67776;52.012;4.736;2023-07-30T13:43:37;21.35;59.94
78490;DHT22;67776;52.012;4.736;2023-07-30T13:46:02;21.61;61.66
78490;DHT22;67776;52.012;4.736;2023-07-30T13:48:28;21.58;61.31
78490;DHT22;67776;52.012;4.736;2023-07-30T13:50:53;21.26;62.02
78490;DHT22;67776;52.012;4.736;2023-07-30T13:53:19;21.16;62.12
78490;DHT22;67776;52.012;4.736;2023-07-30T13:55:45;22.03;61.00
78490;DHT22;67776;52.012;4.736;2023-07-30T13:58:10;23.36;59.55
78490;DHT22;67776;52.012;4.736;2023-07-30T14:00:36;23.96;55.87
78490;DHT22;67776;52.012;4.736;2023-07-30T14:03:01;22.78;58.29
78490;DHT22;67776;52.012;4.736;2023-07-30T14:05:27;22.12;59.70
78490;DHT22;67776;52.012;4.736;2023-07-30T14:07:54;22.13;60.24
78490;DHT22;67776;52.012;4.736;2023-07-30T14:10:22;21.50;61.89
78490;DHT22;67776;52.012;4.736;2023-07-30T14:12:48;21.47;61.99
78490;DHT22;67776;52.012;4.736;2023-07-30T14:15:13;21.14;61.88
78490;DHT22;67776;52.012;4.736;2023-07-30T14:17:40;21.33;63.11
78490;DHT22;67776;52.012;4.736;2023-07-30T14:20:06;21.58;62.77
78490;DHT22;67776;52.012;4.736;2023-07-30T14:22:32;22.44;61.90
78490;DHT22;67776;52.012;4.736;2023-07-30T14:24:58;23.12;57.51
78490;DHT22;67776;52.012;4.736;2023-07-30T14:27:24;22.40;56.25
78490;DHT22;67776;52.012;4.736;2023-07-30T14:29:50;21.26;58.67
78490;DHT22;67776;52.012;4.736;2023-07-30T14:32:15;21.13;60.65
78490;DHT22;67776;52.012;4.736;2023-07-30T14:34:41;21.10;59.77
78490;DHT22;67776;52.012;4.736;2023-07-30T14:37:06;21.24;58.66
78490;DHT22;67776;52.012;4.736;2023-07-30T14:39:32;21.17;63.29
78490;DHT22;67776;52.012;4.736;2023-07-30T14:41:57;21.52;60.97
78490;DHT22;67776;52.012;4.736;2023-07-30T14:44:22;21.22;64.63
78490;DHT22;67776;52.012;4.736;2023-07-30T14:46:48;21.38;61.14
78490;DHT22;67776;52.012;4.736;2023-07-30T14:49:13;21.44;61.26
78490;DHT22;67776;52.012;4.736;2023-07-30T14:51:39;21.06;65.01
78490;DHT22;67776;52.012;4.736;2023-07-30T14:54:04;21.03;65.94
78490;DHT22;67776;52.012;4.736;2023-07-30T14:56:29;21.27;62.21
78490;DHT22;67776;52.012;4.736;2023-07-30T14:58:55;21.14;61.16
78490;DHT22;67776;52.012;4.736;2023-07-30T15:01:22;20.99;63.39
78490;DHT22;67776;52.012;4.736;2023-07-30T15:03:48;20.95;63.46
78490;DHT22;67776;52.012;4.736;2023-07-30T15:06:13;20.89;64.32
78490;DHT22;67776;52.012;4.736;2023-07-30T15:08:39;20.78;65.33
78490;DHT22;67776;52.012;4.736;2023-07-30T15:11:04;20.82;64.49
78490;DHT22;67776;52.012;4.736;2023-07-30T15:13:29;20.88;63.65
78490;DHT22;67776;52.012;4.736;2023-07-30T15:15:55;20.68;67.10
78490;DHT22;67776;52.012;4.736;2023-07-30T15:18:20;20.72;65.89
78490;DHT22;67776;52.012;4.736;2023-07-30T15:20:46;21.03;66.68
78490;DHT22;67776;52.012;4.736;2023-07-30T15:23:11;21.24;64.90
78490;DHT22;67776;52.012;4.736;2023-07-30T15:25:40;20.93;66.40
78490;DHT22;67776;52.012;4.736;2023-07-30T15:28:05;21.22;67.48
78490;DHT22;67776;52.012;4.736;2023-07-30T15:30:31;21.27;66.98
78490;DHT22;67776;52.012;4.736;2023-07-30T15:32:56;21.48;63.74